sensor_id;sensor_type;location;lat;lon;timestamp;P1;durP1;ratioP1;P2;durP2;ratioP2
12177;SDS011;6152;48.728;9.256;2023-05-08T00:02:10;18.35;;;14.80;;
12177;SDS011;6152;48.728;9.256;2023-05-08T00:04:36;17.38;;;15.18;;
12177;SDS011;6152;48.728;9.256;2023-05-08T00:07:03;17.98;;;13.82;;
12177;SDS011;6152;48.728;9.256;2023-05-08T00:09:29;17.17;;;14.75;;
12177;SDS011;6152;48.728;9.256;2023-05-08T00:11:55;17.23;;;14.70;;
12177;SDS011;6152;48.728;9.256;2023-05-08T00:14:21;17.85;;;15.40;;
12177;SDS011;6152;48.728;9.256;2023-05-08T00:16:47;19.08;;;16.95;;
12177;SDS011;6152;48.728;9.256;2023-05-08T00:19:13;17.80;;;15.70;;
12177;SDS011;6152;48.728;9.256;2023-05-08T00:21:39;20.05;;;16.33;;
12177;SDS011;6152;48.728;9.256;2023-05-08T00:24:06;19.83;;;16.60;;
12177;SDS011;6152;48.728;9.256;2023-05-08T00:26:32;18.98;;;16.52;;
12177;SDS011;6152;48.728;9.256;2023-05-08T00:28:58;17.95;;;15.50;;
12177;SDS011;6152;48.728;9.256;2023-05-08T00:31:24;18.35;;;14.77;;
12177;SDS011;6152;48.728;9.256;2023-05-08T00:33:50;19.27;;;15.68;;
12177;SDS011;6152;48.728;9.256;2023-05-08T00:36:16;19.40;;;16.45;;
12177;SDS011;6152;48.728;9.256;2023-05-08T00:38:42;21.20;;;16.58;;
12177;SDS011;6152;48.728;9.256;2023-05-08T00:41:08;16.83;;;14.70;;
12177;SDS011;6152;48.728;9.256;2023-05-08T00:43:34;20.02;;;14.90;;
12177;SDS011;6152;48.728;9.256;2023-05-08T00:46:01;17.63;;;14.55;;
12177;SDS011;6152;48.728;9.256;2023-05-08T00:48:28;17.77;;;14.68;;
12177;SDS011;6152;48.728;9.256;2023-05-08T00:50:57;25.63;;;14.27;;
12177;SDS011;6152;48.728;9.256;2023-05-08T00:53:24;26.13;;;15.70;;
12177;SDS011;6152;48.728;9.256;2023-05-08T00:55:51;23.63;;;15.50;;
12177;SDS011;6152;48.728;9.256;2023-05-08T00:58:19;17.50;;;14.00;;
12177;SDS011;6152;48.728;9.256;2023-05-08T01:00:47;18.73;;;14.10;;
12177;SDS011;6152;48.728;9.256;2023-05-08T01:03:14;16.25;;;13.30;;
12177;SDS011;6152;48.728;9.256;2023-05-08T01:05:41;15.07;;;13.07;;
12177;SDS011;6152;48.728;9.256;2023-05-08T01:08:08;16.35;;;13.85;;
12177;SDS011;6152;48.728;9.256;2023-05-08T01:10:41;16.63;;;12.95;;
12177;SDS011;6152;48.728;9.256;2023-05-08T01:13:41;17.65;;;14.27;;
12177;SDS011;6152;48.728;9.256;2023-05-08T01:16:41;15.63;;;12.73;;
12177;SDS011;6152;48.728;9.256;2023-05-08T01:24:52;16.30;;;12.63;;
12177;SDS011;6152;48.728;9.256;2023-05-08T01:27:39;15.52;;;12.80;;
12177;SDS011;6152;48.728;9.256;2023-05-08T01:33:24;14.98;;;12.00;;
12177;SDS011;6152;48.728;9.256;2023-05-08T01:38:45;15.00;;;12.40;;
12177;SDS011;6152;48.728;9.256;2023-05-08T01:41:30;16.15;;;11.90;;
12177;SDS011;6152;48.728;9.256;2023-05-08T01:44:05;16.17;;;13.13;;
12177;SDS011;6152;48.728;9.256;2023-05-08T01:46:41;17.23;;;13.55;;
12177;SDS011;6152;48.728;9.256;2023-05-08T01:49:15;16.50;;;12.63;;
12177;SDS011;6152;48.728;9.256;2023-05-08T01:52:02;15.38;;;12.45;;
12177;SDS011;6152;48.728;9.256;2023-05-08T01:54:46;14.43;;;12.30;;
12177;SDS011;6152;48.728;9.256;2023-05-08T01:57:21;15.98;;;12.93;;
12177;SDS011;6152;48.728;9.256;2023-05-08T01:59:53;15.32;;;12.25;;
12177;SDS011;6152;48.728;9.256;2023-05-08T02:02:24;14.35;;;11.48;;
12177;SDS011;6152;48.728;9.256;2023-05-08T02:04:53;14.13;;;11.80;;
12177;SDS011;6152;48.728;9.256;2023-05-08T02:07:20;17.25;;;12.95;;
12177;SDS011;6152;48.728;9.256;2023-05-08T02:09:48;14.07;;;12.43;;
12177;SDS011;6152;48.728;9.256;2023-05-08T02:12:15;14.75;;;12.23;;
12177;SDS011;6152;48.728;9.256;2023-05-08T02:14:42;13.75;;;12.20;;
12177;SDS011;6152;48.728;9.256;2023-05-08T02:17:11;15.75;;;12.30;;
12177;SDS011;6152;48.728;9.256;2023-05-08T02:19:41;14.48;;;12.27;;
12177;SDS011;6152;48.728;9.256;2023-05-08T02:22:08;14.48;;;11.98;;
12177;SDS011;6152;48.728;9.256;2023-05-08T02:24:36;14.57;;;12.07;;
12177;SDS011;6152;48.728;9.256;2023-05-08T02:27:04;14.38;;;11.73;;
12177;SDS011;6152;48.728;9.256;2023-05-08T02:29:33;18.08;;;12.75;;
12177;SDS011;6152;48.728;9.256;2023-05-08T02:32:00;14.88;;;12.45;;
12177;SDS011;6152;48.728;9.256;2023-05-08T02:34:27;17.75;;;12.88;;
12177;SDS011;6152;48.728;9.256;2023-05-08T02:36:55;17.92;;;12.30;;
12177;SDS011;6152;48.728;9.256;2023-05-08T02:39:26;14.65;;;12.30;;
12177;SDS011;6152;48.728;9.256;2023-05-08T02:41:56;13.90;;;12.13;;
12177;SDS011;6152;48.728;9.256;2023-05-08T02:44:22;14.45;;;11.98;;
12177;SDS011;6152;48.728;9.256;2023-05-08T02:46:52;15.02;;;12.55;;
12177;SDS011;6152;48.728;9.256;2023-05-08T02:52:21;17.35;;;12.95;;
12177;SDS011;6152;48.728;9.256;2023-05-08T03:00:15;15.15;;;11.93;;
12177;SDS011;6152;48.728;9.256;2023-05-08T03:03:18;15.68;;;12.27;;
12177;SDS011;6152;48.728;9.256;2023-05-08T03:06:04;16.63;;;12.50;;
12177;SDS011;6152;48.728;9.256;2023-05-08T03:08:36;14.80;;;12.35;;
12177;SDS011;6152;48.728;9.256;2023-05-08T03:11:07;15.85;;;11.60;;
12177;SDS011;6152;48.728;9.256;2023-05-08T03:13:41;15.98;;;13.70;;
12177;SDS011;6152;48.728;9.256;2023-05-08T03:16:12;16.73;;;12.77;;
12177;SDS011;6152;48.728;9.256;2023-05-08T03:18:52;17.75;;;13.10;;
12177;SDS011;6152;48.728;9.256;2023-05-08T03:21:22;20.65;;;15.60;;
12177;SDS011;6152;48.728;9.256;2023-05-08T03:23:52;19.15;;;14.93;;
12177;SDS011;6152;48.728;9.256;2023-05-08T03:26:21;20.45;;;16.38;;
12177;SDS011;6152;48.728;9.256;2023-05-08T03:28:50;22.08;;;16.55;;
12177;SDS011;6152;48.728;9.256;2023-05-08T03:31:18;22.88;;;16.92;;
12177;SDS011;6152;48.728;9.256;2023-05-08T03:33:46;26.40;;;18.63;;
12177;SDS011;6152;48.728;9.256;2023-05-08T03:36:14;29.98;;;20.15;;
12177;SDS011;6152;48.728;9.256;2023-05-08T03:38:41;28.25;;;19.60;;
12177;SDS011;6152;48.728;9.256;2023-05-08T03:41:08;27.02;;;18.42;;
12177;SDS011;6152;48.728;9.256;2023-05-08T03:43:35;28.70;;;19.65;;
12177;SDS011;6152;48.728;9.256;2023-05-08T03:46:03;29.42;;;19.38;;
12177;SDS011;6152;48.728;9.256;2023-05-08T03:48:33;29.42;;;19.45;;
12177;SDS011;6152;48.728;9.256;2023-05-08T03:51:03;28.60;;;20.75;;
12177;SDS011;6152;48.728;9.256;2023-05-08T03:53:30;27.30;;;19.00;;
12177;SDS011;6152;48.728;9.256;2023-05-08T03:55:57;28.80;;;19.88;;
12177;SDS011;6152;48.728;9.256;2023-05-08T04:04:24;24.90;;;16.70;;
12177;SDS011;6152;48.728;9.256;2023-05-08T04:07:07;24.40;;;16.30;;
12177;SDS011;6152;48.728;9.256;2023-05-08T04:15:08;22.15;;;14.63;;
12177;SDS011;6152;48.728;9.256;2023-05-08T04:17:49;20.63;;;15.27;;
12177;SDS011;6152;48.728;9.256;2023-05-08T04:20:23;19.63;;;15.57;;
12177;SDS011;6152;48.728;9.256;2023-05-08T04:22:51;21.02;;;14.35;;
12177;SDS011;6152;48.728;9.256;2023-05-08T04:25:18;19.20;;;14.40;;
12177;SDS011;6152;48.728;9.256;2023-05-08T04:27:45;22.38;;;14.82;;
12177;SDS011;6152;48.728;9.256;2023-05-08T04:30:15;17.92;;;13.75;;
12177;SDS011;6152;48.728;9.256;2023-05-08T04:32:41;20.27;;;14.10;;
12177;SDS011;6152;48.728;9.256;2023-05-08T04:35:08;18.73;;;13.57;;
12177;SDS011;6152;48.728;9.256;2023-05-08T04:37:37;16.52;;;13.23;;
12177;SDS011;6152;48.728;9.256;2023-05-08T04:40:05;18.98;;;13.88;;
12177;SDS011;6152;48.728;9.256;2023-05-08T04:42:32;16.42;;;13.55;;
12177;SDS011;6152;48.728;9.256;2023-05-08T04:45:02;18.35;;;13.70;;
12177;SDS011;6152;48.728;9.256;2023-05-08T04:47:33;16.40;;;13.55;;
12177;SDS011;6152;48.728;9.256;2023-05-08T04:49:59;20.55;;;13.48;;
12177;SDS011;6152;48.728;9.256;2023-05-08T04:52:26;16.10;;;13.20;;
12177;SDS011;6152;48.728;9.256;2023-05-08T04:54:52;18.15;;;13.82;;
12177;SDS011;6152;48.728;9.256;2023-05-08T04:57:18;17.17;;;13.23;;
12177;SDS011;6152;48.728;9.256;2023-05-08T04:59:44;18.38;;;13.82;;
12177;SDS011;6152;48.728;9.256;2023-05-08T05:02:10;16.67;;;13.38;;
12177;SDS011;6152;48.728;9.256;2023-05-08T05:04:36;16.75;;;12.93;;
12177;SDS011;6152;48.728;9.256;2023-05-08T05:07:02;18.45;;;13.68;;
12177;SDS011;6152;48.728;9.256;2023-05-08T05:09:29;15.35;;;12.95;;
12177;SDS011;6152;48.728;9.256;2023-05-08T05:11:55;16.50;;;12.38;;
12177;SDS011;6152;48.728;9.256;2023-05-08T05:14:21;17.80;;;13.95;;
12177;SDS011;6152;48.728;9.256;2023-05-08T05:16:47;16.13;;;12.70;;
12177;SDS011;6152;48.728;9.256;2023-05-08T05:19:13;18.95;;;12.98;;
12177;SDS011;6152;48.728;9.256;2023-05-08T05:21:40;15.38;;;12.80;;
12177;SDS011;6152;48.728;9.256;2023-05-08T05:24:06;15.30;;;12.68;;
12177;SDS011;6152;48.728;9.256;2023-05-08T05:26:32;16.42;;;13.02;;
12177;SDS011;6152;48.728;9.256;2023-05-08T05:28:59;16.05;;;13.35;;
12177;SDS011;6152;48.728;9.256;2023-05-08T05:31:26;17.10;;;13.43;;
12177;SDS011;6152;48.728;9.256;2023-05-08T05:33:53;15.57;;;13.00;;
12177;SDS011;6152;48.728;9.256;2023-05-08T05:36:20;17.08;;;12.82;;
12177;SDS011;6152;48.728;9.256;2023-05-08T05:38:46;15.13;;;12.45;;
12177;SDS011;6152;48.728;9.256;2023-05-08T05:41:12;16.65;;;12.50;;
12177;SDS011;6152;48.728;9.256;2023-05-08T05:43:39;16.25;;;12.35;;
12177;SDS011;6152;48.728;9.256;2023-05-08T05:46:05;18.15;;;13.35;;
12177;SDS011;6152;48.728;9.256;2023-05-08T05:48:32;17.67;;;12.60;;
12177;SDS011;6152;48.728;9.256;2023-05-08T05:50:58;13.88;;;11.32;;
12177;SDS011;6152;48.728;9.256;2023-05-08T05:53:25;13.65;;;11.20;;
12177;SDS011;6152;48.728;9.256;2023-05-08T05:55:51;14.25;;;11.55;;
12177;SDS011;6152;48.728;9.256;2023-05-08T05:58:18;13.82;;;11.63;;
12177;SDS011;6152;48.728;9.256;2023-05-08T06:00:44;15.02;;;10.80;;
12177;SDS011;6152;48.728;9.256;2023-05-08T06:03:11;13.38;;;10.60;;
12177;SDS011;6152;48.728;9.256;2023-05-08T06:05:38;13.35;;;10.70;;
12177;SDS011;6152;48.728;9.256;2023-05-08T06:08:05;11.57;;;9.85;;
12177;SDS011;6152;48.728;9.256;2023-05-08T06:10:32;12.45;;;9.02;;
12177;SDS011;6152;48.728;9.256;2023-05-08T06:12:58;11.23;;;9.52;;
12177;SDS011;6152;48.728;9.256;2023-05-08T06:15:24;10.93;;;8.70;;
12177;SDS011;6152;48.728;9.256;2023-05-08T06:17:51;9.98;;;8.95;;
12177;SDS011;6152;48.728;9.256;2023-05-08T06:20:18;9.73;;;8.48;;
12177;SDS011;6152;48.728;9.256;2023-05-08T06:22:44;9.18;;;8.27;;
12177;SDS011;6152;48.728;9.256;2023-05-08T06:25:10;10.05;;;7.85;;
12177;SDS011;6152;48.728;9.256;2023-05-08T06:27:36;8.52;;;7.72;;
12177;SDS011;6152;48.728;9.256;2023-05-08T06:30:03;9.00;;;7.55;;
12177;SDS011;6152;48.728;9.256;2023-05-08T06:32:32;9.55;;;8.35;;
12177;SDS011;6152;48.728;9.256;2023-05-08T06:34:58;11.57;;;8.10;;
12177;SDS011;6152;48.728;9.256;2023-05-08T06:37:24;8.55;;;7.70;;
12177;SDS011;6152;48.728;9.256;2023-05-08T06:39:50;8.05;;;7.35;;
12177;SDS011;6152;48.728;9.256;2023-05-08T06:42:17;8.40;;;7.53;;
12177;SDS011;6152;48.728;9.256;2023-05-08T06:44:43;7.93;;;7.13;;
12177;SDS011;6152;48.728;9.256;2023-05-08T06:47:09;8.18;;;7.05;;
12177;SDS011;6152;48.728;9.256;2023-05-08T06:49:35;8.50;;;7.68;;
12177;SDS011;6152;48.728;9.256;2023-05-08T06:52:02;7.78;;;7.00;;
12177;SDS011;6152;48.728;9.256;2023-05-08T06:54:28;8.02;;;6.78;;
12177;SDS011;6152;48.728;9.256;2023-05-08T06:56:54;7.15;;;6.47;;
12177;SDS011;6152;48.728;9.256;2023-05-08T06:59:20;8.68;;;7.18;;
12177;SDS011;6152;48.728;9.256;2023-05-08T07:01:49;8.25;;;6.88;;
12177;SDS011;6152;48.728;9.256;2023-05-08T07:04:15;8.73;;;7.15;;
12177;SDS011;6152;48.728;9.256;2023-05-08T07:06:41;7.80;;;6.57;;
12177;SDS011;6152;48.728;9.256;2023-05-08T07:09:07;8.65;;;7.25;;
12177;SDS011;6152;48.728;9.256;2023-05-08T07:11:34;8.25;;;7.45;;
12177;SDS011;6152;48.728;9.256;2023-05-08T07:14:01;8.38;;;7.35;;
12177;SDS011;6152;48.728;9.256;2023-05-08T07:16:27;7.93;;;7.15;;
12177;SDS011;6152;48.728;9.256;2023-05-08T07:18:53;7.13;;;6.40;;
12177;SDS011;6152;48.728;9.256;2023-05-08T07:21:19;6.60;;;6.00;;
12177;SDS011;6152;48.728;9.256;2023-05-08T07:23:45;6.53;;;5.85;;
12177;SDS011;6152;48.728;9.256;2023-05-08T07:26:13;6.50;;;5.85;;
12177;SDS011;6152;48.728;9.256;2023-05-08T07:28:39;5.78;;;5.28;;
12177;SDS011;6152;48.728;9.256;2023-05-08T07:31:05;5.30;;;4.85;;
12177;SDS011;6152;48.728;9.256;2023-05-08T07:33:31;6.82;;;5.05;;
12177;SDS011;6152;48.728;9.256;2023-05-08T07:35:58;6.05;;;5.22;;
12177;SDS011;6152;48.728;9.256;2023-05-08T07:38:25;5.82;;;5.25;;
12177;SDS011;6152;48.728;9.256;2023-05-08T07:40:51;5.82;;;5.18;;
12177;SDS011;6152;48.728;9.256;2023-05-08T07:43:21;7.57;;;5.55;;
12177;SDS011;6152;48.728;9.256;2023-05-08T07:45:50;5.80;;;5.00;;
12177;SDS011;6152;48.728;9.256;2023-05-08T07:48:16;6.60;;;5.90;;
12177;SDS011;6152;48.728;9.256;2023-05-08T07:50:42;6.30;;;5.68;;
12177;SDS011;6152;48.728;9.256;2023-05-08T07:53:08;6.60;;;5.57;;
12177;SDS011;6152;48.728;9.256;2023-05-08T07:55:35;7.82;;;6.65;;
12177;SDS011;6152;48.728;9.256;2023-05-08T07:58:01;6.78;;;6.05;;
12177;SDS011;6152;48.728;9.256;2023-05-08T08:00:28;9.02;;;7.07;;
12177;SDS011;6152;48.728;9.256;2023-05-08T08:02:55;10.88;;;8.27;;
12177;SDS011;6152;48.728;9.256;2023-05-08T08:05:21;9.52;;;7.65;;
12177;SDS011;6152;48.728;9.256;2023-05-08T08:07:47;11.30;;;8.05;;
12177;SDS011;6152;48.728;9.256;2023-05-08T08:10:13;9.95;;;8.10;;
12177;SDS011;6152;48.728;9.256;2023-05-08T08:12:40;9.93;;;8.60;;
12177;SDS011;6152;48.728;9.256;2023-05-08T08:15:06;9.60;;;8.23;;
12177;SDS011;6152;48.728;9.256;2023-05-08T08:17:32;10.48;;;8.68;;
12177;SDS011;6152;48.728;9.256;2023-05-08T08:19:59;11.65;;;8.70;;
12177;SDS011;6152;48.728;9.256;2023-05-08T08:22:25;11.45;;;9.52;;
12177;SDS011;6152;48.728;9.256;2023-05-08T08:24:51;12.27;;;9.55;;
12177;SDS011;6152;48.728;9.256;2023-05-08T08:27:19;10.43;;;9.38;;
12177;SDS011;6152;48.728;9.256;2023-05-08T08:29:46;9.77;;;8.52;;
12177;SDS011;6152;48.728;9.256;2023-05-08T08:32:12;10.15;;;8.88;;
12177;SDS011;6152;48.728;9.256;2023-05-08T08:34:38;9.90;;;8.30;;
12177;SDS011;6152;48.728;9.256;2023-05-08T08:37:04;10.23;;;9.15;;
12177;SDS011;6152;48.728;9.256;2023-05-08T08:39:31;9.90;;;8.90;;
12177;SDS011;6152;48.728;9.256;2023-05-08T08:41:58;9.27;;;8.18;;
12177;SDS011;6152;48.728;9.256;2023-05-08T08:44:24;10.40;;;8.48;;
12177;SDS011;6152;48.728;9.256;2023-05-08T08:46:51;11.57;;;8.48;;
12177;SDS011;6152;48.728;9.256;2023-05-08T08:49:20;9.35;;;8.45;;
12177;SDS011;6152;48.728;9.256;2023-05-08T08:51:56;10.18;;;8.85;;
12177;SDS011;6152;48.728;9.256;2023-05-08T08:54:27;10.55;;;8.73;;
12177;SDS011;6152;48.728;9.256;2023-05-08T08:56:59;10.98;;;9.30;;
12177;SDS011;6152;48.728;9.256;2023-05-08T08:59:30;11.27;;;9.65;;
12177;SDS011;6152;48.728;9.256;2023-05-08T09:01:59;11.00;;;9.10;;
12177;SDS011;6152;48.728;9.256;2023-05-08T09:04:32;12.82;;;10.00;;
12177;SDS011;6152;48.728;9.256;2023-05-08T09:06:59;15.50;;;9.85;;
12177;SDS011;6152;48.728;9.256;2023-05-08T09:09:29;11.35;;;9.85;;
12177;SDS011;6152;48.728;9.256;2023-05-08T09:11:59;11.93;;;9.60;;
12177;SDS011;6152;48.728;9.256;2023-05-08T09:14:26;12.43;;;9.55;;
12177;SDS011;6152;48.728;9.256;2023-05-08T09:16:52;10.57;;;9.27;;
12177;SDS011;6152;48.728;9.256;2023-05-08T09:19:19;12.75;;;9.70;;
12177;SDS011;6152;48.728;9.256;2023-05-08T09:21:47;12.32;;;9.95;;
12177;SDS011;6152;48.728;9.256;2023-05-08T09:24:14;11.55;;;9.60;;
12177;SDS011;6152;48.728;9.256;2023-05-08T09:26:40;10.15;;;8.65;;
12177;SDS011;6152;48.728;9.256;2023-05-08T09:29:07;11.23;;;8.38;;
12177;SDS011;6152;48.728;9.256;2023-05-08T09:31:41;11.15;;;8.80;;
12177;SDS011;6152;48.728;9.256;2023-05-08T09:34:10;10.52;;;9.40;;
12177;SDS011;6152;48.728;9.256;2023-05-08T09:36:47;11.70;;;9.50;;
12177;SDS011;6152;48.728;9.256;2023-05-08T09:39:14;9.98;;;8.75;;
12177;SDS011;6152;48.728;9.256;2023-05-08T09:42:08;12.70;;;8.80;;
12177;SDS011;6152;48.728;9.256;2023-05-08T09:44:43;10.43;;;9.20;;
12177;SDS011;6152;48.728;9.256;2023-05-08T09:47:10;14.43;;;9.75;;
12177;SDS011;6152;48.728;9.256;2023-05-08T09:49:38;14.90;;;9.52;;
12177;SDS011;6152;48.728;9.256;2023-05-08T09:52:05;10.95;;;9.80;;
12177;SDS011;6152;48.728;9.256;2023-05-08T09:54:32;10.07;;;8.98;;
12177;SDS011;6152;48.728;9.256;2023-05-08T09:56:58;12.48;;;9.25;;
12177;SDS011;6152;48.728;9.256;2023-05-08T09:59:26;11.55;;;8.38;;
12177;SDS011;6152;48.728;9.256;2023-05-08T10:01:54;11.25;;;8.38;;
12177;SDS011;6152;48.728;9.256;2023-05-08T10:04:36;9.50;;;8.50;;
12177;SDS011;6152;48.728;9.256;2023-05-08T10:07:02;10.10;;;8.70;;
12177;SDS011;6152;48.728;9.256;2023-05-08T10:09:29;14.13;;;10.18;;
12177;SDS011;6152;48.728;9.256;2023-05-08T10:11:55;15.10;;;10.18;;
12177;SDS011;6152;48.728;9.256;2023-05-08T10:14:21;13.27;;;10.32;;
12177;SDS011;6152;48.728;9.256;2023-05-08T10:16:49;12.52;;;9.98;;
12177;SDS011;6152;48.728;9.256;2023-05-08T10:19:20;11.82;;;10.45;;
12177;SDS011;6152;48.728;9.256;2023-05-08T10:21:53;13.25;;;10.00;;
12177;SDS011;6152;48.728;9.256;2023-05-08T10:27:06;13.50;;;9.63;;
12177;SDS011;6152;48.728;9.256;2023-05-08T10:29:52;11.13;;;8.50;;
12177;SDS011;6152;48.728;9.256;2023-05-08T10:32:19;9.55;;;8.52;;
12177;SDS011;6152;48.728;9.256;2023-05-08T10:34:48;10.38;;;8.57;;
12177;SDS011;6152;48.728;9.256;2023-05-08T10:37:20;8.82;;;7.57;;
12177;SDS011;6152;48.728;9.256;2023-05-08T10:39:47;8.82;;;7.47;;
12177;SDS011;6152;48.728;9.256;2023-05-08T10:42:14;9.45;;;7.45;;
12177;SDS011;6152;48.728;9.256;2023-05-08T10:44:40;7.75;;;6.97;;
12177;SDS011;6152;48.728;9.256;2023-05-08T10:52:49;5.10;;;4.38;;
12177;SDS011;6152;48.728;9.256;2023-05-08T10:55:36;5.80;;;5.10;;
12177;SDS011;6152;48.728;9.256;2023-05-08T10:58:10;8.55;;;5.28;;
12177;SDS011;6152;48.728;9.256;2023-05-08T11:03:27;5.82;;;5.22;;
12177;SDS011;6152;48.728;9.256;2023-05-08T11:05:55;4.72;;;4.30;;
12177;SDS011;6152;48.728;9.256;2023-05-08T11:08:23;4.93;;;4.50;;
12177;SDS011;6152;48.728;9.256;2023-05-08T11:13:49;4.70;;;4.18;;
12177;SDS011;6152;48.728;9.256;2023-05-08T11:19:17;5.15;;;4.57;;
12177;SDS011;6152;48.728;9.256;2023-05-08T11:24:38;4.95;;;4.55;;
12177;SDS011;6152;48.728;9.256;2023-05-08T11:27:10;5.03;;;4.63;;
12177;SDS011;6152;48.728;9.256;2023-05-08T11:29:37;4.97;;;4.57;;
12177;SDS011;6152;48.728;9.256;2023-05-08T11:32:03;4.80;;;4.40;;
12177;SDS011;6152;48.728;9.256;2023-05-08T11:37:18;6.72;;;6.13;;
12177;SDS011;6152;48.728;9.256;2023-05-08T11:39:46;7.18;;;6.47;;
12177;SDS011;6152;48.728;9.256;2023-05-08T11:45:03;9.27;;;7.82;;
12177;SDS011;6152;48.728;9.256;2023-05-08T11:47:37;8.20;;;7.32;;
12177;SDS011;6152;48.728;9.256;2023-05-08T11:50:06;9.00;;;8.10;;
12177;SDS011;6152;48.728;9.256;2023-05-08T11:52:34;9.20;;;7.88;;
12177;SDS011;6152;48.728;9.256;2023-05-08T11:55:04;9.27;;;7.60;;
12177;SDS011;6152;48.728;9.256;2023-05-08T11:57:34;9.20;;;8.27;;
12177;SDS011;6152;48.728;9.256;2023-05-08T12:00:07;9.25;;;8.13;;
12177;SDS011;6152;48.728;9.256;2023-05-08T12:02:41;11.05;;;8.43;;
12177;SDS011;6152;48.728;9.256;2023-05-08T12:05:10;10.73;;;9.23;;
12177;SDS011;6152;48.728;9.256;2023-05-08T12:07:42;10.30;;;9.18;;
12177;SDS011;6152;48.728;9.256;2023-05-08T12:10:10;13.38;;;10.13;;
12177;SDS011;6152;48.728;9.256;2023-05-08T12:12:40;11.55;;;10.23;;
12177;SDS011;6152;48.728;9.256;2023-05-08T12:15:07;10.63;;;9.52;;
12177;SDS011;6152;48.728;9.256;2023-05-08T12:17:35;12.05;;;9.90;;
12177;SDS011;6152;48.728;9.256;2023-05-08T12:20:08;11.25;;;9.85;;
12177;SDS011;6152;48.728;9.256;2023-05-08T12:22:39;10.75;;;9.65;;
12177;SDS011;6152;48.728;9.256;2023-05-08T12:25:07;10.00;;;9.00;;
12177;SDS011;6152;48.728;9.256;2023-05-08T12:27:35;10.45;;;9.35;;
12177;SDS011;6152;48.728;9.256;2023-05-08T12:30:08;10.27;;;9.27;;
12177;SDS011;6152;48.728;9.256;2023-05-08T12:32:38;10.65;;;9.55;;
12177;SDS011;6152;48.728;9.256;2023-05-08T12:35:06;10.80;;;9.35;;
12177;SDS011;6152;48.728;9.256;2023-05-08T12:37:33;10.18;;;9.25;;
12177;SDS011;6152;48.728;9.256;2023-05-08T12:40:00;10.55;;;9.07;;
12177;SDS011;6152;48.728;9.256;2023-05-08T12:42:40;9.70;;;8.70;;
12177;SDS011;6152;48.728;9.256;2023-05-08T12:47:45;9.75;;;8.75;;
12177;SDS011;6152;48.728;9.256;2023-05-08T12:50:16;9.52;;;8.63;;
12177;SDS011;6152;48.728;9.256;2023-05-08T12:52:45;8.32;;;7.60;;
12177;SDS011;6152;48.728;9.256;2023-05-08T12:55:24;8.30;;;7.40;;
12177;SDS011;6152;48.728;9.256;2023-05-08T12:57:58;9.88;;;7.82;;
12177;SDS011;6152;48.728;9.256;2023-05-08T13:00:32;8.70;;;7.82;;
12177;SDS011;6152;48.728;9.256;2023-05-08T13:03:09;8.98;;;8.18;;
12177;SDS011;6152;48.728;9.256;2023-05-08T13:05:39;8.73;;;7.82;;
12177;SDS011;6152;48.728;9.256;2023-05-08T13:08:08;8.55;;;7.85;;
12177;SDS011;6152;48.728;9.256;2023-05-08T13:13:17;9.57;;;8.15;;
12177;SDS011;6152;48.728;9.256;2023-05-08T13:15:44;9.77;;;8.88;;
12177;SDS011;6152;48.728;9.256;2023-05-08T13:18:11;8.80;;;7.90;;
12177;SDS011;6152;48.728;9.256;2023-05-08T13:20:38;9.73;;;8.75;;
12177;SDS011;6152;48.728;9.256;2023-05-08T13:23:05;8.82;;;8.00;;
12177;SDS011;6152;48.728;9.256;2023-05-08T13:25:32;9.32;;;8.43;;
12177;SDS011;6152;48.728;9.256;2023-05-08T13:27:59;9.23;;;8.32;;
12177;SDS011;6152;48.728;9.256;2023-05-08T13:30:26;9.40;;;8.48;;
12177;SDS011;6152;48.728;9.256;2023-05-08T13:32:52;9.55;;;8.57;;
12177;SDS011;6152;48.728;9.256;2023-05-08T13:35:18;9.00;;;8.13;;
12177;SDS011;6152;48.728;9.256;2023-05-08T13:37:45;10.35;;;9.35;;
12177;SDS011;6152;48.728;9.256;2023-05-08T13:40:12;11.48;;;10.38;;
12177;SDS011;6152;48.728;9.256;2023-05-08T13:42:39;11.88;;;10.68;;
12177;SDS011;6152;48.728;9.256;2023-05-08T13:45:05;10.65;;;9.57;;
12177;SDS011;6152;48.728;9.256;2023-05-08T13:47:34;10.85;;;9.52;;
12177;SDS011;6152;48.728;9.256;2023-05-08T13:50:01;9.55;;;8.60;;
12177;SDS011;6152;48.728;9.256;2023-05-08T13:52:27;10.30;;;9.27;;
12177;SDS011;6152;48.728;9.256;2023-05-08T13:54:54;9.82;;;8.93;;
12177;SDS011;6152;48.728;9.256;2023-05-08T13:57:20;10.43;;;9.48;;
12177;SDS011;6152;48.728;9.256;2023-05-08T13:59:47;10.25;;;9.25;;
12177;SDS011;6152;48.728;9.256;2023-05-08T14:02:13;10.55;;;9.20;;
12177;SDS011;6152;48.728;9.256;2023-05-08T14:04:39;10.68;;;8.85;;
12177;SDS011;6152;48.728;9.256;2023-05-08T14:07:05;10.07;;;9.02;;
12177;SDS011;6152;48.728;9.256;2023-05-08T14:09:32;10.32;;;9.25;;
12177;SDS011;6152;48.728;9.256;2023-05-08T14:11:58;9.90;;;8.95;;
12177;SDS011;6152;48.728;9.256;2023-05-08T14:14:25;11.88;;;10.15;;
12177;SDS011;6152;48.728;9.256;2023-05-08T14:16:51;11.13;;;10.02;;
12177;SDS011;6152;48.728;9.256;2023-05-08T14:19:17;10.77;;;9.15;;
12177;SDS011;6152;48.728;9.256;2023-05-08T14:21:46;12.10;;;8.88;;
12177;SDS011;6152;48.728;9.256;2023-05-08T14:24:12;10.02;;;9.13;;
12177;SDS011;6152;48.728;9.256;2023-05-08T14:26:38;9.90;;;8.98;;
12177;SDS011;6152;48.728;9.256;2023-05-08T14:29:04;10.55;;;9.43;;
12177;SDS011;6152;48.728;9.256;2023-05-08T14:31:30;11.90;;;9.45;;
12177;SDS011;6152;48.728;9.256;2023-05-08T14:33:56;10.27;;;8.50;;
12177;SDS011;6152;48.728;9.256;2023-05-08T14:36:22;9.82;;;8.57;;
12177;SDS011;6152;48.728;9.256;2023-05-08T14:38:48;9.35;;;8.45;;
12177;SDS011;6152;48.728;9.256;2023-05-08T14:41:15;10.40;;;9.32;;
12177;SDS011;6152;48.728;9.256;2023-05-08T14:43:41;11.52;;;9.23;;
12177;SDS011;6152;48.728;9.256;2023-05-08T14:46:07;10.05;;;9.05;;
12177;SDS011;6152;48.728;9.256;2023-05-08T14:48:34;11.60;;;9.63;;
12177;SDS011;6152;48.728;9.256;2023-05-08T14:51:00;10.07;;;8.20;;
12177;SDS011;6152;48.728;9.256;2023-05-08T14:53:26;9.65;;;8.75;;
12177;SDS011;6152;48.728;9.256;2023-05-08T14:55:52;10.05;;;8.82;;
12177;SDS011;6152;48.728;9.256;2023-05-08T14:58:18;9.98;;;8.52;;
12177;SDS011;6152;48.728;9.256;2023-05-08T15:00:44;8.90;;;8.00;;
12177;SDS011;6152;48.728;9.256;2023-05-08T15:03:10;8.65;;;7.85;;
12177;SDS011;6152;48.728;9.256;2023-05-08T15:05:36;8.77;;;7.85;;
12177;SDS011;6152;48.728;9.256;2023-05-08T15:08:02;8.40;;;7.68;;
12177;SDS011;6152;48.728;9.256;2023-05-08T15:10:29;8.63;;;7.82;;
12177;SDS011;6152;48.728;9.256;2023-05-08T15:12:55;9.02;;;8.13;;
12177;SDS011;6152;48.728;9.256;2023-05-08T15:15:21;11.88;;;8.38;;
12177;SDS011;6152;48.728;9.256;2023-05-08T15:17:47;8.77;;;7.97;;
12177;SDS011;6152;48.728;9.256;2023-05-08T15:20:14;9.85;;;8.77;;
12177;SDS011;6152;48.728;9.256;2023-05-08T15:22:40;8.90;;;8.00;;
12177;SDS011;6152;48.728;9.256;2023-05-08T15:25:06;9.70;;;8.75;;
12177;SDS011;6152;48.728;9.256;2023-05-08T15:27:32;8.90;;;8.02;;
12177;SDS011;6152;48.728;9.256;2023-05-08T15:29:58;9.82;;;8.75;;
12177;SDS011;6152;48.728;9.256;2023-05-08T15:32:24;8.98;;;8.10;;
12177;SDS011;6152;48.728;9.256;2023-05-08T15:34:50;9.35;;;8.45;;
12177;SDS011;6152;48.728;9.256;2023-05-08T15:37:17;10.82;;;9.02;;
12177;SDS011;6152;48.728;9.256;2023-05-08T15:39:43;10.55;;;9.55;;
12177;SDS011;6152;48.728;9.256;2023-05-08T15:42:09;10.18;;;8.85;;
12177;SDS011;6152;48.728;9.256;2023-05-08T15:44:35;12.98;;;9.32;;
12177;SDS011;6152;48.728;9.256;2023-05-08T15:47:01;10.27;;;8.93;;
12177;SDS011;6152;48.728;9.256;2023-05-08T15:49:27;11.38;;;9.23;;
12177;SDS011;6152;48.728;9.256;2023-05-08T15:51:53;10.27;;;9.13;;
12177;SDS011;6152;48.728;9.256;2023-05-08T15:54:20;10.18;;;8.82;;
12177;SDS011;6152;48.728;9.256;2023-05-08T15:56:46;10.05;;;9.02;;
12177;SDS011;6152;48.728;9.256;2023-05-08T15:59:12;9.23;;;8.32;;